Flight Track Log - Related Links

Times and Time Zones

All times are in EDT time to prevent confusion due to time zone crossing. See the GJS3627 flight status page for this flight to view local times or setup timezone preferences in your user account.

Time Position Orientation Groundspeed Altitude Reporting Facility
EDT Latitude Longitude Course Direction KTS MPH feet Rate Location/Type
Tue 12:12:30 PM 42.0000 -87.9667 270° West 160 184 2,200  Level Chicago TRACON
Tue 12:13:25 PM 42.0000 -88.0167 270° West 197 227 4,000 2,160 Climbing Chicago TRACON
Tue 12:15:00 PM 41.9825 -88.1681 261° West 234 269 7,600 2,369 Climbing Chicago Center
Tue 12:16:02 PM 41.9797 -88.2658 268° West 260 299 10,200 2,439 Climbing Chicago Center
Tue 12:17:03 PM 41.9758 -88.3633 267° West 263 303 12,600 2,244 Climbing Chicago Center
Tue 12:18:05 PM 41.9744 -88.4700 269° West 281 323 14,800 1,645 Climbing Chicago Center
Tue 12:19:07 PM 41.9497 -88.5731 252° West 296 341 16,000 823 Climbing Chicago Center
Tue 12:20:09 PM 41.8800 -88.6794 229° Southwest 319 367 16,500 1,065 Climbing Chicago Center
Tue 12:21:11 PM 41.8203 -88.7744 230° Southwest 335 386 18,200 1,355 Climbing Chicago Center
Tue 12:22:13 PM 41.7611 -88.8769 232° Southwest 349 402 19,300 1,065 Climbing Chicago Center
Tue 12:23:15 PM 41.7294 -89.0100 252° West 378 435 20,400 1,210 Climbing Chicago Center
Tue 12:24:17 PM 41.6986 -89.1450 253° West 381 438 21,800 1,317 Climbing Chicago Center
Tue 12:25:18 PM 41.6661 -89.2808 252° West 384 442 23,100 1,268 Climbing Chicago Center
Tue 12:26:20 PM 41.6244 -89.4483 252° West 394 453 24,400 1,113 Climbing Chicago Center
Tue 12:27:22 PM 41.5886 -89.5922 252° West 404 465 25,400 968 Climbing Chicago Center
Tue 12:28:24 PM 41.5522 -89.7403 252° West 416 479 26,400 968 Climbing Chicago Center
Tue 12:29:26 PM 41.5153 -89.8872 251° West 420 483 27,400 976 Climbing Chicago Center
Tue 12:30:27 PM 41.4769 -90.0364 251° West 424 488 28,400 976 Climbing Chicago Center
Tue 12:31:29 PM 41.4392 -90.1867 252° West 428 493 29,400 1,065 Climbing Chicago Center
Tue 12:32:31 PM 41.3936 -90.3658 251° West 428 493 30,600 1,065 Climbing Chicago Center
Tue 12:33:33 PM 41.3547 -90.5164 251° West 431 496 31,600 968 Climbing Chicago Center
Tue 12:34:35 PM 41.2919 -90.6553 239° Southwest 443 510 32,600 1,024 Climbing Chicago Center
Tue 12:35:36 PM 41.2278 -90.7889 237° Southwest 433 498 33,700 1,024 Climbing Chicago Center
Tue 12:36:38 PM 41.1631 -90.9192 237° Southwest 426 490 34,700 968 Climbing Chicago Center
Tue 12:37:40 PM 41.0989 -91.0494 237° Southwest 423 487 35,700 629 Climbing Chicago Center
Tue 12:38:42 PM 41.0208 -91.2047 236° Southwest 423 487 36,000 145 Climbing Chicago Center
Tue 12:39:44 PM 40.9619 -91.3247 237° Southwest 425 489 36,000  Level Chicago Center
Tue 12:40:46 PM 40.8958 -91.4517 235° Southwest 425 489 36,000  Level Chicago Center
Tue 12:41:48 PM 40.8308 -91.5825 237° Southwest 426 490 36,000  Level Chicago Center
Tue 12:42:49 PM 40.7531 -91.7369 236° Southwest 424 488 36,000  Level Chicago Center
Tue 12:43:51 PM 40.6878 -91.8650 236° Southwest 423 487 36,000  Level Chicago Center
Tue 12:44:53 PM 40.6228 -91.9931 236° Southwest 424 488 36,000  Level Chicago Center
Tue 12:45:57 PM 40.5581 -92.1197 236° Southwest 424 488 36,000  Level Kansas City Center
Tue 12:46:59 PM 40.4792 -92.2719 236° Southwest 425 489 36,000 -194 Level Kansas City Center
Tue 12:48:01 PM 40.4169 -92.3933 236° Southwest 424 488 35,600 -992 Descending Kansas City Center
Tue 12:49:00 PM 40.3503 -92.5219 236° Southwest 425 489 34,000 -1,587 Descending Chicago Center
Tue 12:50:02 PM 40.2842 -92.6481 236° Southwest 423 487 32,400 -1,742 Descending Chicago Center
Tue 12:51:04 PM 40.2069 -92.7944 235° Southwest 429 494 30,400 -2,032 Descending Chicago Center
Tue 12:52:06 PM 40.1378 -92.9250 235° Southwest 439 505 28,200 -2,173 Descending Chicago Center
Tue 12:53:11 PM 40.0686 -93.0558 235° Southwest 442 509 25,800 -2,268 Descending Kansas City Center
Tue 12:54:13 PM 39.9992 -93.1847 235° Southwest 439 505 23,400 -2,565 Descending Kansas City Center
Tue 12:55:15 PM 39.9183 -93.3347 235° Southwest 428 493 20,500 -2,565 Descending Kansas City Center
Tue 12:56:17 PM 39.8542 -93.4572 236° Southwest 418 481 18,100 -2,226 Descending Kansas City Center
Tue 12:57:19 PM 39.7925 -93.5719 235° Southwest 399 459 15,900 -1,984 Descending Kansas City Center
Tue 12:58:21 PM 39.7342 -93.6839 236° Southwest 383 441 14,000 -1,728 Descending Kansas City Center
Tue 12:59:24 PM 39.6678 -93.8086 235° Southwest 358 412 12,300 -1,536 Descending Kansas City Center
Tue 01:00:26 PM 39.6194 -93.8983 235° Southwest 318 366 10,800 -1,403 Descending Kansas City Center
Tue 01:01:28 PM 39.5722 -93.9922 237° Southwest 281 323 9,400 -1,500 Descending Kansas City Center
Tue 01:02:30 PM 39.5333 -94.0683 236° Southwest 266 306 7,700 -1,161 Descending Kansas City Center
Tue 01:03:32 PM 39.5169 -94.1717 258° West 263 303 7,000 -726 Descending Kansas City Center
Tue 01:04:34 PM 39.5053 -94.2611 260° West 263 303 6,200 -484 Descending Kansas City Center
Tue 01:05:36 PM 39.4944 -94.3500 261° West 261 300 6,000 -145 Descending Kansas City Center
Tue 01:06:38 PM 39.4819 -94.4531 261° West 260 299 5,900 -677 Descending Kansas City Center
Tue 01:07:40 PM 39.4714 -94.5389 261° West 254 292 4,600 -1,355 Descending Kansas City Center
Tue 01:08:42 PM 39.4314 -94.6203 238° Southwest 246 283 3,100 -968 Descending Kansas City Center
Tue 01:09:44 PM 39.3953 -94.6728 228° Southwest 209 241 2,600 -581 Descending Kansas City Center
Tue 01:10:46 PM 39.3553 -94.6878 196° South 131 151 1,900 -629 Descending Kansas City Center
Tue 01:11:48 PM 39.3219 -94.6967 192° South 127 146 1,300 -581 Descending Kansas City Center
Tue 01:13:00 PM 39.2976 -94.7139 191° South  Level Estimated
Tue 01:20:00 PM 39.2976 -94.7139 191° South  Level Estimated

Login

Don't have an account? Register now (free) for customized features, flight alerts, and more!